Time;durP1;ratioP1;P1;durP2;ratioP2;P2;SDS_P1;SDS_P2;PMS_P1;PMS_P2;Temp;Humidity;BMP_temperature;BMP_pressure;BME280_temperature;BME280_humidity;BME280_pressure;Samples;Min_cycle;Max_cycle;Signal;HPM_P1;HPM_P2
2022/08/27 04:03:28;;;;;;;14.30;7.82;;;13.50;99.90;;;;;;3072639;27;20551;-89
2022/08/27 04:06:10;;;;;;;;;;;;;;;;;;;;;
2022/08/27 04:08:53;;;;;;;17.00;8.50;;;13.50;99.90;;;;;;4904356;29;20062;-89
2022/08/27 04:11:20;;;;;;;15.88;8.80;;;13.40;99.90;;;;;;4890986;29;20448;-88
2022/08/27 04:13:46;;;;;;;12.88;8.30;;;13.50;99.90;;;;;;4904353;29;20403;-89
2022/08/27 04:16:11;;;;;;;14.02;8.25;;;13.50;99.90;;;;;;4906616;29;20040;-88
2022/08/27 04:18:37;;;;;;;16.52;8.73;;;13.50;99.90;;;;;;4923410;29;20044;-88
2022/08/27 04:21:09;;;;;;;16.85;7.88;;;13.50;99.90;;;;;;4922622;29;20032;-87
2022/08/27 04:23:34;;;;;;;14.18;8.57;;;13.50;99.90;;;;;;4907619;29;20080;-89
2022/08/27 04:26:06;;;;;;;13.68;7.43;;;13.50;99.90;;;;;;4906246;29;20048;-91
2022/08/27 04:28:32;;;;;;;12.95;7.53;;;13.50;99.90;;;;;;4892192;29;20055;-89
2022/08/27 04:30:57;;;;;;;12.43;7.63;;;13.50;99.90;;;;;;4925427;29;20040;-86
2022/08/27 04:33:23;;;;;;;14.57;7.93;;;13.50;99.90;;;;;;4893022;29;20044;-89
2022/08/27 04:36:04;;;;;;;14.10;7.10;;;13.50;99.90;;;;;;4927313;29;20036;-87
2022/08/27 04:38:31;;;;;;;14.18;7.90;;;13.50;99.90;;;;;;4907599;29;20044;-88
2022/08/27 04:43:42;;;;;;;14.50;8.48;;;13.50;99.90;;;;;;4908450;29;20488;-89
2022/08/27 04:46:07;;;;;;;14.20;8.02;;;13.40;99.90;;;;;;4924081;29;20123;-85
2022/08/27 04:48:34;;;;;;;11.85;7.55;;;13.50;99.90;;;;;;4891634;29;20086;-87
2022/08/27 04:51:00;;;;;;;12.93;7.22;;;13.50;99.90;;;;;;4895845;29;20050;-82
2022/08/27 04:53:26;;;;;;;12.38;7.68;;;13.50;99.90;;;;;;4930960;29;20055;-83
2022/08/27 04:55:55;;;;;;;10.60;7.10;;;13.50;99.90;;;;;;4898383;29;20043;-86
2022/08/27 04:58:21;;;;;;;13.48;6.93;;;13.50;99.90;;;;;;4913397;29;20048;-87
2022/08/27 05:00:52;;;;;;;13.10;7.57;;;13.50;99.90;;;;;;4897360;29;20047;-85
2022/08/27 05:03:23;;;;;;;11.75;7.50;;;13.50;99.90;;;;;;4913688;29;20044;-90
2022/08/27 05:05:50;;;;;;;12.15;7.22;;;13.60;99.90;;;;;;4897230;29;20063;-86
2022/08/27 05:08:16;;;;;;;12.32;7.65;;;13.60;99.90;;;;;;4928033;29;20052;-91
2022/08/27 05:10:46;;;;;;;10.70;7.07;;;13.60;99.90;;;;;;4908474;29;20044;-92
2022/08/27 05:13:12;;;;;;;10.20;6.95;;;13.70;99.90;;;;;;4895016;29;20079;-91
2022/08/27 05:15:39;;;;;;;13.10;7.47;;;13.70;99.90;;;;;;4892062;29;20048;-87
2022/08/27 05:18:07;;;;;;;10.75;7.45;;;13.70;99.90;;;;;;4909223;29;20040;-90
2022/08/27 05:20:33;;;;;;;11.13;7.00;;;13.70;99.90;;;;;;4925247;29;20044;-87
2022/08/27 05:22:59;;;;;;;13.30;7.47;;;13.70;99.90;;;;;;4892109;29;20100;-90
2022/08/27 05:25:26;;;;;;;11.18;7.22;;;13.70;99.90;;;;;;4929954;29;20044;-87
2022/08/27 05:27:53;;;;;;;11.20;6.75;;;13.70;99.90;;;;;;4901078;29;20036;-85
2022/08/27 05:30:26;;;;;;;10.32;7.15;;;13.80;99.90;;;;;;4904366;29;20056;-84
2022/08/27 05:32:55;;;;;;;11.75;7.63;;;13.80;99.90;;;;;;4920575;29;20044;-91
2022/08/27 05:35:22;;;;;;;12.50;6.70;;;13.90;99.90;;;;;;4919206;29;20067;-87
2022/08/27 05:37:51;;;;;;;13.63;7.30;;;13.80;99.90;;;;;;4904501;29;20060;-82
2022/08/27 05:40:56;;;;;;;13.85;6.82;;;13.80;99.90;;;;;;4890470;29;20055;-85
2022/08/27 05:43:23;;;;;;;13.77;7.10;;;13.90;99.90;;;;;;4924274;29;20048;-88
2022/08/27 05:46:10;;;;;;;;;;;;;;;;;;;;;
2022/08/27 05:49:12;;;;;;;14.25;6.82;;;14.00;99.90;;;;;;4904027;29;20048;-82
2022/08/27 05:52:05;;;;;;;15.10;7.03;;;14.00;99.90;;;;;;4925337;29;20038;-84
2022/08/27 05:54:38;;;;;;;10.90;6.20;;;14.10;99.90;;;;;;4908642;29;20071;-85
2022/08/27 05:57:20;;;;;;;13.40;5.70;;;14.10;99.90;;;;;;4907482;29;20117;-85
2022/08/27 06:02:36;;;;;;;9.68;6.03;;;14.30;99.90;;;;;;4910151;29;20106;-90
2022/08/27 06:05:03;;;;;;;8.00;5.18;;;14.30;99.90;;;;;;4891630;29;20043;-88
2022/08/27 06:07:30;;;;;;;10.30;5.53;;;14.40;99.90;;;;;;4892517;29;20083;-88
2022/08/27 06:09:57;;;;;;;9.52;5.35;;;14.50;99.90;;;;;;4926131;29;20058;-87
2022/08/27 06:12:24;;;;;;;11.57;5.53;;;14.60;99.90;;;;;;4893282;29;20052;-88
2022/08/27 06:14:50;;;;;;;7.03;5.05;;;14.60;99.90;;;;;;4909237;29;20098;-87
2022/08/27 06:17:16;;;;;;;15.18;6.03;;;14.70;99.90;;;;;;4893626;29;20051;-86
2022/08/27 06:19:42;;;;;;;18.05;5.20;;;14.70;99.90;;;;;;4910509;29;20032;-88
2022/08/27 06:22:08;;;;;;;9.60;4.55;;;14.80;99.90;;;;;;4909402;29;20404;-88
2022/08/27 06:24:34;;;;;;;10.48;4.88;;;14.90;99.90;;;;;;4910410;29;20047;-86
2022/08/27 06:27:00;;;;;;;8.55;5.13;;;14.90;99.90;;;;;;4910213;29;20044;-91
2022/08/27 06:29:27;;;;;;;8.40;4.72;;;15.10;99.90;;;;;;4910167;29;20095;-87
2022/08/27 06:31:55;;;;;;;6.78;4.20;;;15.10;99.90;;;;;;4894552;29;20052;-89
2022/08/27 06:34:21;;;;;;;7.32;4.28;;;15.10;99.90;;;;;;4926778;29;20048;-87
2022/08/27 06:36:46;;;;;;;8.85;4.30;;;15.20;99.90;;;;;;4893917;29;20119;-90
2022/08/27 06:39:12;;;;;;;6.43;4.05;;;15.30;99.90;;;;;;4926401;29;20067;-86
2022/08/27 06:41:39;;;;;;;7.22;4.07;;;15.30;99.90;;;;;;4910718;29;20040;-87
2022/08/27 06:44:05;;;;;;;8.20;4.32;;;15.40;99.90;;;;;;4925078;29;20095;-87
2022/08/27 06:46:31;;;;;;;7.93;3.80;;;15.50;99.90;;;;;;4889724;29;20044;-87
2022/08/27 06:48:59;;;;;;;8.85;3.95;;;15.50;99.90;;;;;;4902683;29;20098;-87
2022/08/27 06:51:33;;;;;;;11.07;4.15;;;15.60;99.90;;;;;;4905859;29;20049;-88
2022/08/27 06:54:03;;;;;;;6.60;3.88;;;15.60;99.90;;;;;;4902454;29;20408;-90
2022/08/27 06:56:30;;;;;;;6.45;3.65;;;15.70;99.90;;;;;;4886293;29;20415;-86
2022/08/27 06:58:59;;;;;;;7.60;4.15;;;15.80;99.90;;;;;;4917786;29;20040;-87
2022/08/27 07:05:06;;;;;;;10.68;4.00;;;15.90;99.90;;;;;;4918700;29;20090;-82
2022/08/27 07:13:55;;;;;;;;;;;16.20;99.90;;;;;;5122827;23;20366;-88
2022/08/27 07:16:22;;;;;;;10.88;3.58;;;16.20;99.90;;;;;;4882600;29;20304;-89
2022/08/27 07:19:02;;;;;;;5.93;2.83;;;16.30;99.90;;;;;;4866457;29;20045;-90
2022/08/27 07:22:14;;;;;;;6.30;2.80;;;16.50;99.90;;;;;;4868303;29;20400;-91
2022/08/27 07:24:43;;;;;;;8.87;3.43;;;16.50;99.90;;;;;;4869218;29;20109;-88
2022/08/27 07:27:27;;;;;;;5.47;2.90;;;16.60;99.90;;;;;;4886168;29;20075;-89
2022/08/27 07:30:11;;;;;;;13.60;3.30;;;16.70;99.90;;;;;;4890049;29;20063;-88
2022/08/27 07:32:44;;;;;;;9.15;2.90;;;16.80;99.90;;;;;;4872346;29;20056;-87
2022/08/27 07:35:13;;;;;;;6.70;2.67;;;16.90;99.90;;;;;;4886887;29;20518;-87
2022/08/27 07:37:51;;;;;;;4.40;2.35;;;17.00;99.90;;;;;;4871471;29;20408;-88
2022/08/27 07:40:24;;;;;;;5.18;2.30;;;17.00;99.90;;;;;;4873076;29;20374;-89
2022/08/27 07:45:44;;;;;;;8.13;2.40;;;17.20;99.90;;;;;;4888749;29;20052;-90
2022/08/27 07:48:19;;;;;;;7.15;3.00;;;17.30;99.90;;;;;;4891386;29;20536;-90
2022/08/27 07:51:08;;;;;;;;;;;;;;;;;;;;;
2022/08/27 07:53:39;;;;;;;7.30;2.47;;;17.40;99.90;;;;;;4897281;29;20056;-89
2022/08/27 07:56:17;;;;;;;7.15;2.30;;;17.50;99.90;;;;;;4888735;29;20113;-88
2022/08/27 07:59:48;;;;;;;;;;;;;;;;;;;;;
2022/08/27 08:02:29;;;;;;;6.53;2.45;;;17.50;99.90;;;;;;4864888;29;20154;-89
2022/08/27 08:05:05;;;;;;;6.38;2.38;;;17.50;99.90;;;;;;4876554;29;20040;-91
2022/08/27 08:07:49;;;;;;;;;;;;;;;;;;;;;
2022/08/27 08:10:15;;;;;;;6.88;2.00;;;17.70;99.90;;;;;;4887481;29;20445;-83
2022/08/27 08:19:25;;;;;;;;;;;17.90;99.90;;;;;;5526454;23;20506;-89
2022/08/27 08:22:21;;;;;;;5.15;2.08;;;17.90;99.90;;;;;;5150641;23;19921;-84
2022/08/27 08:24:47;;;;;;;7.47;1.60;;;18.00;99.90;;;;;;4884606;29;20504;-83
2022/08/27 08:27:13;;;;;;;7.45;1.80;;;18.10;99.90;;;;;;4901897;29;20056;-84
2022/08/27 08:29:38;;;;;;;5.30;1.73;;;18.10;99.90;;;;;;4901871;29;20052;-80
2022/08/27 08:32:05;;;;;;;7.75;1.95;;;18.20;99.90;;;;;;4885480;29;20044;-81
2022/08/27 08:34:32;;;;;;;12.65;2.15;;;18.30;99.90;;;;;;4899094;29;20713;-83
2022/08/27 08:36:57;;;;;;;7.10;2.17;;;18.40;99.90;;;;;;4898412;29;20056;-82
2022/08/27 08:39:23;;;;;;;10.68;2.22;;;18.40;99.90;;;;;;4884586;29;20397;-81
2022/08/27 08:42:00;;;;;;;9.07;1.98;;;18.50;99.90;;;;;;4884446;29;20044;-83
2022/08/27 08:44:47;;;;;;;8.52;1.80;;;18.50;99.90;;;;;;4900507;29;20422;-83
2022/08/27 08:47:20;;;;;;;7.85;2.08;;;18.70;99.90;;;;;;4885207;29;20382;-83
2022/08/27 08:49:45;;;;;;;8.73;1.55;;;18.90;99.90;;;;;;4884873;29;20044;-83
2022/08/27 08:52:42;;;;;;;6.18;1.73;;;19.00;99.90;;;;;;4902013;29;20489;-85
2022/08/27 08:55:46;;;;;;;8.40;1.60;;;19.20;99.90;;;;;;4883589;29;20057;-84
2022/08/27 08:58:27;;;;;;;7.57;1.55;;;19.50;99.90;;;;;;4869755;29;20057;-83
2022/08/27 09:01:00;;;;;;;5.45;1.52;;;19.60;99.90;;;;;;4884035;29;20084;-83
2022/08/27 09:03:28;;;;;;;8.27;1.90;;;19.70;99.90;;;;;;4901363;29;20048;-84
2022/08/27 09:06:06;;;;;;;10.68;2.03;;;19.60;99.90;;;;;;4900532;29;20044;-83
2022/08/27 09:08:37;;;;;;;6.65;1.50;;;19.50;99.90;;;;;;4883327;29;20041;-84
2022/08/27 09:11:24;;;;;;;4.38;1.70;;;19.40;99.90;;;;;;4884801;29;20045;-83
2022/08/27 09:13:56;;;;;;;9.13;2.08;;;19.30;99.90;;;;;;4883173;29;20454;-83
2022/08/27 09:16:22;;;;;;;4.78;1.38;;;19.20;99.90;;;;;;4884876;29;20044;-84
2022/08/27 09:18:48;;;;;;;7.30;1.48;;;19.20;99.90;;;;;;4883188;29;20051;-84
2022/08/27 09:21:40;;;;;;;7.85;1.40;;;19.10;99.90;;;;;;4899729;29;20115;-82
2022/08/27 09:24:16;;;;;;;6.38;1.30;;;19.00;99.90;;;;;;4883743;29;20144;-84
2022/08/27 09:26:44;;;;;;;8.50;1.35;;;19.00;99.90;;;;;;4900842;29;20052;-84
2022/08/27 09:29:19;;;;;;;4.72;1.45;;;19.00;99.90;;;;;;4884965;29;20493;-83
2022/08/27 09:31:58;;;;;;;7.70;2.05;;;19.00;99.90;;;;;;4900117;29;20083;-83
2022/08/27 09:34:26;;;;;;;6.82;1.50;;;19.20;99.90;;;;;;4901267;29;20040;-84
2022/08/27 09:37:09;;;;;;;7.72;1.88;;;19.30;99.90;;;;;;4867394;29;20143;-85
2022/08/27 09:40:10;;;;;;;7.38;1.35;;;19.40;99.90;;;;;;4883486;29;20080;-84
2022/08/27 09:42:48;;;;;;;4.95;1.30;;;19.50;99.90;;;;;;4899859;29;20041;-83
2022/08/27 09:45:18;;;;;;;5.63;1.80;;;19.60;99.90;;;;;;4883158;29;20128;-84
2022/08/27 09:47:53;;;;;;;8.75;1.25;;;19.80;99.90;;;;;;4900859;29;20052;-84
2022/08/27 09:50:22;;;;;;;6.97;1.27;;;19.90;99.90;;;;;;4899618;29;20045;-86
2022/08/27 09:52:57;;;;;;;5.70;1.10;;;20.00;99.90;;;;;;4900976;29;20129;-83
2022/08/27 09:55:42;;;;;;;7.00;1.10;;;20.00;99.90;;;;;;4900183;29;20117;-83
2022/08/27 09:58:19;;;;;;;5.97;1.70;;;20.10;99.90;;;;;;4883822;29;20397;-84
2022/08/27 10:00:46;;;;;;;5.60;1.20;;;20.00;99.90;;;;;;4900709;29;20044;-83
2022/08/27 10:03:12;;;;;;;7.15;1.38;;;20.00;99.90;;;;;;4899706;29;20123;-83
2022/08/27 10:05:50;;;;;;;4.43;1.05;;;20.10;99.90;;;;;;4901219;29;20143;-83
2022/08/27 10:08:27;;;;;;;8.68;1.90;;;20.20;99.90;;;;;;4882325;29;20115;-84
2022/08/27 10:10:55;;;;;;;6.45;1.50;;;20.20;99.90;;;;;;4883108;29;20054;-83
2022/08/27 10:13:23;;;;;;;7.60;1.10;;;20.20;99.90;;;;;;4899217;29;20473;-84
2022/08/27 10:16:32;;;;;;;8.30;1.40;;;20.20;99.90;;;;;;4898932;29;20037;-84
2022/08/27 10:19:04;;;;;;;6.90;1.40;;;20.20;99.90;;;;;;4863594;29;20184;-83
2022/08/27 10:21:38;;;;;;;6.38;1.48;;;20.10;99.90;;;;;;4881744;29;20052;-83
2022/08/27 10:24:20;;;;;;;9.30;1.30;;;20.00;99.90;;;;;;4899537;29;20044;-83
2022/08/27 10:27:10;;;;;;;6.47;1.23;;;20.00;99.90;;;;;;4898875;29;20045;-84
2022/08/27 10:30:04;;;;;;;9.57;1.52;;;19.90;99.90;;;;;;4881827;29;20060;-83
2022/08/27 10:56:13;;;;;;;7.78;1.38;;;19.90;99.90;;;;;;3085904;23;20428;-88
2022/08/27 10:59:20;;;;;;;6.10;1.08;;;20.00;99.90;;;;;;4896179;29;20056;-90
2022/08/27 11:02:41;;;;;;;7.82;2.13;;;20.10;99.90;;;;;;4890262;29;20075;-90
2022/08/27 11:06:03;;;;;;;11.70;1.75;;;20.20;99.90;;;;;;4832025;29;20050;-89
2022/08/27 11:09:12;;;;;;;5.20;1.08;;;20.40;99.90;;;;;;4852712;29;20494;-93
2022/08/27 11:12:01;;;;;;;5.75;0.98;;;20.40;99.90;;;;;;4857559;29;20049;-90
2022/08/27 11:14:32;;;;;;;5.68;1.08;;;20.60;99.90;;;;;;4853203;29;20080;-85
2022/08/27 11:17:05;;;;;;;5.32;1.00;;;20.60;99.90;;;;;;4881249;29;20076;-84
2022/08/27 11:19:45;;;;;;;10.57;1.38;;;20.60;99.90;;;;;;4881487;29;20585;-83
2022/08/27 11:22:44;;;;;;;6.97;1.17;;;20.60;99.90;;;;;;4865373;29;20049;-84
2022/08/27 11:25:10;;;;;;;6.65;1.00;;;20.60;99.90;;;;;;4864888;29;20049;-84
2022/08/27 11:27:38;;;;;;;3.85;1.27;;;20.50;99.90;;;;;;4850160;29;20053;-84
2022/08/27 11:30:38;;;;;;;5.65;0.90;;;20.50;99.90;;;;;;4850188;29;20088;-84
2022/08/27 11:33:21;;;;;;;7.50;1.00;;;20.50;99.90;;;;;;4853888;29;20092;-83
2022/08/27 11:36:19;;;;;;;7.35;1.10;;;20.50;99.90;;;;;;4879437;29;20056;-82
2022/08/27 11:39:10;;;;;;;9.00;1.13;;;20.50;99.90;;;;;;4903706;29;20090;-83
2022/08/27 11:41:53;;;;;;;8.82;1.10;;;20.50;99.90;;;;;;4920771;29;20048;-81
2022/08/27 11:44:23;;;;;;;6.43;0.93;;;20.50;99.90;;;;;;4903566;29;20047;-84
2022/08/27 11:46:54;;;;;;;5.55;1.00;;;20.60;99.90;;;;;;4903399;29;20048;-83
2022/08/27 11:49:40;;;;;;;6.10;1.00;;;20.70;99.90;;;;;;4903648;29;20040;-83
2022/08/27 11:52:07;;;;;;;6.13;1.35;;;20.70;99.90;;;;;;4903225;29;20492;-84
2022/08/27 11:54:50;;;;;;;5.32;0.90;;;20.80;99.90;;;;;;4903318;29;20052;-82
2022/08/27 11:57:33;;;;;;;8.27;1.00;;;20.80;99.90;;;;;;4903155;29;20460;-84
2022/08/27 12:00:25;;;;;;;5.80;1.20;;;20.80;99.90;;;;;;4903375;29;20052;-83
2022/08/27 12:03:30;;;;;;;6.80;1.23;;;20.80;99.90;;;;;;4903565;29;20067;-82
2022/08/27 12:05:56;;;;;;;5.28;0.82;;;20.80;99.90;;;;;;4900772;29;20052;-83
2022/08/27 12:08:25;;;;;;;5.95;1.00;;;20.80;99.90;;;;;;4920090;29;20048;-84
2022/08/27 12:11:09;;;;;;;9.43;1.50;;;20.80;99.90;;;;;;4901471;29;20104;-83
2022/08/27 12:13:44;;;;;;;5.28;1.08;;;20.80;99.90;;;;;;4887185;29;20044;-82
2022/08/27 12:16:19;;;;;;;6.47;1.20;;;20.90;99.90;;;;;;4902640;29;20511;-81
2022/08/27 12:18:45;;;;;;;;;;;21.10;99.90;;;;;;4920359;29;20054;-83
2022/08/27 12:21:58;;;;;;;5.78;1.00;;;21.50;99.90;;;;;;4909522;29;20005;-82
2022/08/27 12:24:38;;;;;;;7.15;1.40;;;21.80;99.90;;;;;;4909205;29;20396;-82
2022/08/27 12:27:27;;;;;;;8.00;1.30;;;21.70;99.90;;;;;;4921419;29;20051;-82
2022/08/27 12:29:58;;;;;;;5.88;0.98;;;21.70;99.90;;;;;;4938748;29;20051;-83
2022/08/27 12:32:31;;;;;;;6.68;1.65;;;22.00;99.90;;;;;;4921585;29;20047;-83
2022/08/27 12:35:20;;;;;;;5.18;1.20;;;22.50;99.90;;;;;;4921320;29;20052;-83
2022/08/27 12:37:50;;;;;;;4.50;0.90;;;22.60;99.90;;;;;;4921320;29;20079;-82
2022/08/27 12:40:37;;;;;;;3.70;1.17;;;22.70;99.90;;;;;;4920424;29;20058;-82
2022/08/27 12:43:20;;;;;;;6.90;1.00;;;22.60;99.90;;;;;;4920778;29;20080;-82
2022/08/27 12:45:54;;;;;;;4.70;1.00;;;22.50;99.90;;;;;;4938071;29;20086;-82
2022/08/27 12:48:26;;;;;;;5.22;1.27;;;22.30;99.90;;;;;;4937998;29;20067;-80
2022/08/27 12:50:54;;;;;;;6.60;1.00;;;22.30;99.90;;;;;;4937960;29;20046;-82
2022/08/27 12:53:41;;;;;;;3.58;0.88;;;22.40;99.90;;;;;;4926497;29;20119;-83
2022/08/27 12:56:18;;;;;;;5.20;0.90;;;22.70;99.90;;;;;;4886366;29;20036;-82
2022/08/27 13:25:26;;;;;;;6.90;1.20;;;23.40;99.90;;;;;;4917940;29;20488;-85
2022/08/27 13:28:02;;;;;;;6.35;0.88;;;23.10;99.90;;;;;;4902262;29;20135;-85
2022/08/27 13:30:30;;;;;;;7.32;1.30;;;23.10;99.90;;;;;;4885233;29;20051;-86
2022/08/27 13:32:57;;;;;;;4.63;1.20;;;23.30;99.90;;;;;;4867294;29;20040;-85
2022/08/27 13:35:23;;;;;;;6.30;1.10;;;23.50;99.90;;;;;;4899605;29;20058;-83
2022/08/27 13:37:52;;;;;;;3.97;0.88;;;23.70;99.90;;;;;;4866964;29;20080;-85
2022/08/27 13:40:37;;;;;;;7.80;2.13;;;23.90;99.90;;;;;;4882738;29;20040;-85
2022/08/27 13:43:08;;;;;;;5.28;1.20;;;24.10;99.90;;;;;;4882518;29;20135;-85
2022/08/27 13:45:36;;;;;;;2.20;0.63;;;24.40;99.90;;;;;;4882438;29;20047;-85
2022/08/27 13:48:03;;;;;;;9.90;2.10;;;24.50;99.90;;;;;;4899570;29;20032;-85
2022/08/27 13:50:31;;;;;;;7.70;3.55;;;24.70;99.90;;;;;;4882331;29;20107;-84
2022/08/27 13:55:50;;;;;;;4.35;1.30;;;24.60;99.90;;;;;;4882094;29;20108;-85
2022/08/27 13:58:24;;;;;;;5.03;1.10;;;24.20;99.90;;;;;;4866693;29;20048;-86
2022/08/27 14:00:50;;;;;;;5.68;1.00;;;23.90;99.90;;;;;;4882259;29;20052;-86
2022/08/27 14:03:25;;;;;;;6.10;1.23;;;23.80;99.90;;;;;;4882372;29;20046;-84
2022/08/27 14:05:51;;;;;;;;;;;23.60;99.90;;;;;;4882678;29;20066;-87
2022/08/27 14:08:18;;;;;;;8.98;1.40;;;23.40;99.90;;;;;;4899106;29;19919;-84
2022/08/27 14:10:48;;;;;;;6.13;1.00;;;23.20;99.90;;;;;;4882172;29;20401;-86
2022/08/27 14:13:16;;;;;;;5.45;0.90;;;23.30;99.90;;;;;;4881945;29;20408;-84
2022/08/27 14:15:51;;;;;;;6.65;1.10;;;23.50;99.90;;;;;;4882415;29;20051;-84
2022/08/27 14:18:31;;;;;;;;;;;23.60;99.90;;;;;;4899037;29;20044;-86
2022/08/27 14:20:58;;;;;;;6.00;0.93;;;23.60;99.90;;;;;;4881665;29;19935;-83
2022/08/27 14:23:25;;;;;;;6.40;1.10;;;23.70;99.90;;;;;;4898609;29;20040;-86
2022/08/27 14:25:52;;;;;;;5.60;1.23;;;23.90;99.90;;;;;;4881870;29;20123;-85
2022/08/27 14:28:19;;;;;;;3.28;0.90;;;24.00;99.90;;;;;;4881951;29;20067;-84
2022/08/27 14:30:46;;;;;;;4.82;0.80;;;23.80;99.90;;;;;;4898676;29;20037;-84
2022/08/27 14:33:12;;;;;;;5.85;1.33;;;23.50;99.90;;;;;;4881212;29;20059;-86
2022/08/27 14:35:39;;;;;;;6.60;1.35;;;23.20;99.90;;;;;;4881664;29;20487;-85
2022/08/27 14:38:19;;;;;;;7.32;1.00;;;23.20;99.90;;;;;;4881723;29;20096;-84
2022/08/27 14:40:45;;;;;;;5.90;1.20;;;23.30;99.90;;;;;;4898621;29;20389;-83
2022/08/27 14:43:11;;;;;;;7.38;1.50;;;23.50;99.90;;;;;;4882417;29;20115;-86
2022/08/27 14:45:39;;;;;;;6.18;1.77;;;23.70;99.90;;;;;;4883271;29;20104;-86
2022/08/27 14:48:07;;;;;;;7.72;1.13;;;23.70;99.90;;;;;;4886183;29;20070;-84
2022/08/27 14:50:33;;;;;;;5.88;1.15;;;23.90;99.90;;;;;;4884352;29;20120;-85
2022/08/27 14:52:58;;;;;;;3.97;0.98;;;23.70;99.90;;;;;;4884587;29;20049;-85
2022/08/27 14:55:24;;;;;;;7.50;1.30;;;23.50;99.90;;;;;;4891574;29;20056;-85
2022/08/27 14:57:50;;;;;;;8.20;1.65;;;23.30;99.90;;;;;;4884736;29;20040;-81
2022/08/27 15:00:16;;;;;;;7.97;1.70;;;23.00;99.90;;;;;;4916130;29;20101;-80
2022/08/27 15:02:45;;;;;;;4.10;1.15;;;22.80;99.90;;;;;;4887009;29;20056;-85
2022/08/27 15:05:11;;;;;;;7.53;1.50;;;22.70;99.90;;;;;;4868346;29;20052;-86
2022/08/27 15:07:37;;;;;;;8.10;1.90;;;22.50;99.90;;;;;;4868542;29;20041;-85
2022/08/27 15:10:06;;;;;;;7.15;1.52;;;22.40;99.90;;;;;;4883149;29;20041;-86
2022/08/27 15:12:31;;;;;;;5.43;1.45;;;22.30;99.90;;;;;;4866883;29;20496;-85
2022/08/27 15:14:57;;;;;;;5.18;1.60;;;22.20;99.90;;;;;;4898582;29;20043;-85
2022/08/27 15:17:23;;;;;;;6.57;1.50;;;22.10;99.90;;;;;;4881689;29;20108;-86
2022/08/27 15:19:49;;;;;;;5.40;1.60;;;22.00;99.90;;;;;;4866653;29;20048;-84
2022/08/27 15:22:20;;;;;;;7.22;1.40;;;21.90;99.90;;;;;;4898792;29;20044;-86
2022/08/27 15:24:57;;;;;;;8.05;1.40;;;21.80;99.90;;;;;;4882783;29;20133;-90
2022/08/27 15:27:24;;;;;;;9.80;1.65;;;21.80;99.90;;;;;;4899759;29;20052;-87
2022/08/27 15:29:50;;;;;;;3.75;1.02;;;21.90;99.90;;;;;;4881972;29;20055;-85
2022/08/27 15:32:30;;;;;;;5.78;1.50;;;22.10;99.90;;;;;;4881345;29;20556;-87
2022/08/27 15:34:57;;;;;;;5.25;1.60;;;22.40;99.90;;;;;;4866701;29;20520;-88
2022/08/27 15:37:24;;;;;;;6.20;1.70;;;22.60;99.90;;;;;;4881464;29;20040;-86
2022/08/27 15:39:49;;;;;;;7.25;1.58;;;22.90;99.90;;;;;;4881575;29;20092;-87
2022/08/27 15:42:15;;;;;;;7.20;1.50;;;23.00;99.90;;;;;;4881270;29;20060;-87
2022/08/27 15:44:49;;;;;;;6.60;1.48;;;23.10;99.90;;;;;;4868012;29;20552;-84
2022/08/27 15:47:15;;;;;;;5.72;1.50;;;23.00;99.90;;;;;;4870021;29;20048;-85
2022/08/27 15:49:41;;;;;;;6.95;1.38;;;22.80;99.90;;;;;;4902107;29;20386;-84
2022/08/27 15:52:09;;;;;;;7.00;1.70;;;22.50;99.90;;;;;;4901821;29;20037;-80
2022/08/27 15:54:36;;;;;;;6.25;1.40;;;22.20;99.90;;;;;;4901574;29;20136;-78
2022/08/27 15:57:02;;;;;;;7.25;1.50;;;22.00;99.90;;;;;;4868961;29;20048;-83
2022/08/27 15:59:28;;;;;;;5.80;1.55;;;21.70;99.90;;;;;;4884586;29;20445;-82
2022/08/27 16:01:53;;;;;;;7.50;1.98;;;21.60;99.90;;;;;;4884421;29;20044;-78
2022/08/27 16:04:20;;;;;;;5.53;1.50;;;21.40;99.90;;;;;;4885465;29;20056;-81
2022/08/27 16:06:47;;;;;;;8.45;2.05;;;21.30;99.90;;;;;;4901610;29;20049;-81
2022/08/27 16:09:14;;;;;;;6.68;1.65;;;21.40;99.90;;;;;;4885112;29;20074;-81
2022/08/27 16:11:39;;;;;;;6.25;1.95;;;21.30;99.90;;;;;;4884541;29;20524;-81
2022/08/27 16:14:06;;;;;;;5.72;1.60;;;21.30;99.90;;;;;;4869180;29;20048;-82
2022/08/27 16:16:32;;;;;;;10.82;1.92;;;21.10;99.90;;;;;;4884802;29;20101;-82
2022/08/27 16:19:03;;;;;;;5.95;1.98;;;21.00;99.90;;;;;;4869060;29;20041;-82
2022/08/27 16:21:29;;;;;;;5.80;1.45;;;20.90;99.90;;;;;;4884078;29;20044;-81
2022/08/27 16:23:55;;;;;;;7.22;1.60;;;20.80;99.90;;;;;;4884259;29;20044;-81
2022/08/27 16:26:22;;;;;;;6.13;1.85;;;20.70;99.90;;;;;;4884607;29;20054;-81
2022/08/27 16:28:48;;;;;;;13.20;2.63;;;20.60;99.90;;;;;;4901783;29;20059;-80
2022/08/27 16:31:14;;;;;;;7.65;2.10;;;20.60;99.90;;;;;;4869199;29;20048;-81
2022/08/27 16:33:41;;;;;;;7.38;1.70;;;20.60;99.90;;;;;;4884415;29;20531;-81
2022/08/27 16:36:08;;;;;;;8.63;2.13;;;20.60;99.90;;;;;;4900768;29;20044;-80
2022/08/27 16:38:34;;;;;;;7.63;2.03;;;20.60;99.90;;;;;;4901132;29;20032;-81
2022/08/27 16:41:02;;;;;;;6.47;1.67;;;20.60;99.90;;;;;;4884262;29;20041;-80
2022/08/27 16:43:28;;;;;;;8.30;2.50;;;20.60;99.90;;;;;;4884377;29;20080;-79
2022/08/27 16:45:55;;;;;;;9.48;1.90;;;20.60;99.90;;;;;;4883921;29;20037;-80
2022/08/27 16:51:18;;;;;;;6.50;2.10;;;20.80;99.90;;;;;;4883520;29;20508;-84
2022/08/27 16:53:47;;;;;;;6.93;1.63;;;20.80;99.90;;;;;;4883391;29;20163;-85
2022/08/27 16:56:16;;;;;;;9.50;2.55;;;20.90;99.90;;;;;;4882604;29;20576;-85
2022/08/27 16:58:43;;;;;;;6.60;2.05;;;20.80;99.90;;;;;;4869040;29;20060;-86
2022/08/27 17:01:11;;;;;;;9.15;1.75;;;20.90;99.90;;;;;;4883923;29;20133;-84
2022/08/27 17:03:45;;;;;;;7.38;2.15;;;20.80;99.90;;;;;;4900489;29;20084;-85
2022/08/27 17:06:13;;;;;;;10.88;2.10;;;20.90;99.90;;;;;;4883619;29;20127;-84
2022/08/27 17:08:44;;;;;;;8.23;2.17;;;20.80;99.90;;;;;;4883813;29;20055;-84
2022/08/27 17:11:17;;;;;;;9.35;2.53;;;20.80;99.90;;;;;;4900319;29;20076;-85
2022/08/27 17:13:47;;;;;;;11.65;2.45;;;20.80;99.90;;;;;;4883170;29;20056;-85
2022/08/27 17:16:14;;;;;;;7.65;2.30;;;20.80;99.90;;;;;;4883950;29;20049;-84
2022/08/27 17:18:41;;;;;;;9.38;2.97;;;20.70;99.90;;;;;;4883646;29;20044;-84
2022/08/27 17:21:06;;;;;;;8.63;2.50;;;20.60;99.90;;;;;;4883575;29;20060;-84
2022/08/27 17:23:38;;;;;;;8.25;2.72;;;20.50;99.90;;;;;;4883639;29;20067;-85
2022/08/27 17:26:07;;;;;;;10.23;3.22;;;20.40;99.90;;;;;;4883827;29;20036;-86
2022/08/27 17:28:33;;;;;;;8.23;2.95;;;20.20;99.90;;;;;;4867971;29;20132;-85
2022/08/27 17:31:00;;;;;;;7.85;2.55;;;20.10;99.90;;;;;;4883046;29;20127;-86
2022/08/27 17:33:35;;;;;;;8.98;2.97;;;20.00;99.90;;;;;;4900238;29;20072;-85
2022/08/27 17:36:01;;;;;;;;;;;19.80;99.90;;;;;;4884202;29;20044;-86
2022/08/27 17:38:29;;;;;;;9.82;2.78;;;19.80;99.90;;;;;;4883063;29;20280;-83
2022/08/27 17:40:54;;;;;;;7.93;3.08;;;19.60;99.90;;;;;;4867712;29;20489;-86
2022/08/27 17:43:21;;;;;;;7.85;2.80;;;19.60;99.90;;;;;;4899660;29;20047;-84
2022/08/27 17:45:47;;;;;;;8.93;3.47;;;19.50;99.90;;;;;;4882500;29;20052;-84
2022/08/27 17:48:13;;;;;;;13.40;3.88;;;19.50;99.90;;;;;;4882855;29;20052;-83
2022/08/27 17:50:40;;;;;;;9.65;3.05;;;19.50;99.90;;;;;;4899201;29;20149;-85
2022/08/27 17:53:07;;;;;;;10.82;3.10;;;19.50;99.90;;;;;;4882740;29;20052;-86
2022/08/27 17:55:33;;;;;;;9.23;3.42;;;19.50;99.90;;;;;;4883169;29;20052;-85
2022/08/27 17:57:59;;;;;;;9.80;3.38;;;19.40;99.90;;;;;;4900051;29;20044;-85
2022/08/27 18:00:24;;;;;;;9.02;2.90;;;19.30;99.90;;;;;;4882975;29;20167;-85
2022/08/27 18:02:52;;;;;;;10.75;3.78;;;19.30;99.90;;;;;;4883055;29;20040;-87
2022/08/27 18:05:20;;;;;;;15.13;3.78;;;19.30;99.90;;;;;;4883003;29;20444;-86
2022/08/27 18:07:50;;;;;;;9.77;3.35;;;19.30;99.90;;;;;;4882792;29;20164;-82
2022/08/27 18:10:22;;;;;;;13.88;3.92;;;19.20;99.90;;;;;;4882489;29;20072;-85
2022/08/27 18:12:48;;;;;;;11.13;3.40;;;19.20;99.90;;;;;;4881981;29;20048;-84
2022/08/27 18:15:27;;;;;;;13.88;3.35;;;19.20;99.90;;;;;;4882331;29;20075;-84
2022/08/27 18:17:54;;;;;;;14.77;4.47;;;19.10;99.90;;;;;;4882009;29;20465;-86
2022/08/27 18:20:22;;;;;;;11.48;3.55;;;19.10;99.90;;;;;;4882401;29;20397;-84
2022/08/27 18:22:49;;;;;;;8.68;3.30;;;19.10;99.90;;;;;;4866363;29;20044;-81
2022/08/27 18:25:16;;;;;;;11.90;3.35;;;19.00;99.90;;;;;;4898765;29;20100;-87
2022/08/27 18:27:44;;;;;;;14.77;3.65;;;19.00;99.90;;;;;;4882320;29;20124;-84
2022/08/27 18:30:11;;;;;;;11.50;3.20;;;18.80;99.90;;;;;;4882553;29;20097;-86
2022/08/27 18:32:38;;;;;;;12.23;3.45;;;18.70;99.90;;;;;;4882593;29;20056;-85
2022/08/27 18:35:13;;;;;;;11.57;3.53;;;18.70;99.90;;;;;;4867057;29;20079;-85
2022/08/27 18:37:40;;;;;;;13.32;3.40;;;18.60;99.90;;;;;;4899088;29;20044;-82
2022/08/27 18:40:06;;;;;;;11.63;3.35;;;18.50;99.90;;;;;;4882134;29;20049;-84
2022/08/27 18:42:37;;;;;;;11.20;3.28;;;18.50;99.90;;;;;;4866658;29;20045;-84